sensor_id;sensor_type;location;lat;lon;timestamp;pressure;altitude;pressure_sealevel;temperature;humidity
23733;BME280;12047;53.450;-2.286;2022-11-20T00:04:46;100561.97;;;14.28;100.00
23733;BME280;12047;53.450;-2.286;2022-11-20T00:09:47;100565.69;;;13.77;100.00
23733;BME280;12047;53.450;-2.286;2022-11-20T00:14:48;100571.13;;;14.09;100.00
23733;BME280;12047;53.450;-2.286;2022-11-20T00:19:48;100555.97;;;14.34;100.00
23733;BME280;12047;53.450;-2.286;2022-11-20T00:24:49;100554.16;;;14.51;100.00
23733;BME280;12047;53.450;-2.286;2022-11-20T00:29:49;100553.81;;;14.29;100.00
23733;BME280;12047;53.450;-2.286;2022-11-20T00:34:50;100543.84;;;14.48;100.00
23733;BME280;12047;53.450;-2.286;2022-11-20T00:39:50;100533.47;;;14.69;100.00
23733;BME280;12047;53.450;-2.286;2022-11-20T00:44:51;100531.47;;;14.63;100.00
23733;BME280;12047;53.450;-2.286;2022-11-20T00:49:52;100520.34;;;14.35;100.00
23733;BME280;12047;53.450;-2.286;2022-11-20T00:54:52;100505.66;;;14.07;100.00
23733;BME280;12047;53.450;-2.286;2022-11-20T00:59:53;100509.16;;;14.07;100.00
23733;BME280;12047;53.450;-2.286;2022-11-20T01:04:56;100494.31;;;14.13;100.00
23733;BME280;12047;53.450;-2.286;2022-11-20T01:09:56;100490.19;;;14.10;100.00
23733;BME280;12047;53.450;-2.286;2022-11-20T01:14:57;100484.19;;;14.24;100.00
23733;BME280;12047;53.450;-2.286;2022-11-20T01:19:58;100477.63;;;13.54;100.00
23733;BME280;12047;53.450;-2.286;2022-11-20T01:24:58;100472.81;;;13.57;100.00
23733;BME280;12047;53.450;-2.286;2022-11-20T01:29:59;100455.03;;;13.90;100.00
23733;BME280;12047;53.450;-2.286;2022-11-20T01:34:59;100447.84;;;13.58;100.00
23733;BME280;12047;53.450;-2.286;2022-11-20T01:40:00;100427.63;;;13.23;100.00
23733;BME280;12047;53.450;-2.286;2022-11-20T01:45:01;100422.50;;;13.38;100.00
23733;BME280;12047;53.450;-2.286;2022-11-20T01:50:17;100411.72;;;13.48;100.00
23733;BME280;12047;53.450;-2.286;2022-11-20T01:55:22;100395.44;;;13.01;100.00
23733;BME280;12047;53.450;-2.286;2022-11-20T02:00:24;100381.44;;;12.90;100.00
23733;BME280;12047;53.450;-2.286;2022-11-20T02:05:43;100371.78;;;13.32;100.00
23733;BME280;12047;53.450;-2.286;2022-11-20T02:10:45;100359.09;;;13.17;100.00
23733;BME280;12047;53.450;-2.286;2022-11-20T02:15:46;100351.66;;;12.79;100.00
23733;BME280;12047;53.450;-2.286;2022-11-20T02:20:50;100340.00;;;13.46;100.00
23733;BME280;12047;53.450;-2.286;2022-11-20T02:25:54;100329.94;;;13.00;100.00
23733;BME280;12047;53.450;-2.286;2022-11-20T02:30:56;100311.03;;;13.11;100.00
23733;BME280;12047;53.450;-2.286;2022-11-20T02:35:56;100302.44;;;13.33;100.00
23733;BME280;12047;53.450;-2.286;2022-11-20T02:40:57;100298.84;;;12.92;100.00
23733;BME280;12047;53.450;-2.286;2022-11-20T02:45:58;100293.69;;;12.90;100.00
23733;BME280;12047;53.450;-2.286;2022-11-20T02:50:58;100276.81;;;13.32;100.00
23733;BME280;12047;53.450;-2.286;2022-11-20T02:55:59;100274.81;;;13.18;100.00
23733;BME280;12047;53.450;-2.286;2022-11-20T03:00:59;100258.31;;;13.14;100.00
23733;BME280;12047;53.450;-2.286;2022-11-20T03:06:00;100250.84;;;13.18;100.00
23733;BME280;12047;53.450;-2.286;2022-11-20T03:11:05;100246.56;;;13.33;100.00
23733;BME280;12047;53.450;-2.286;2022-11-20T03:16:11;100234.72;;;13.03;100.00
23733;BME280;12047;53.450;-2.286;2022-11-20T03:21:13;100229.56;;;13.42;100.00
23733;BME280;12047;53.450;-2.286;2022-11-20T03:26:20;100224.94;;;13.36;100.00
23733;BME280;12047;53.450;-2.286;2022-11-20T03:31:24;100217.44;;;13.23;100.00
23733;BME280;12047;53.450;-2.286;2022-11-20T03:36:25;100210.63;;;13.21;100.00
23733;BME280;12047;53.450;-2.286;2022-11-20T03:41:28;100190.31;;;12.87;100.00
23733;BME280;12047;53.450;-2.286;2022-11-20T03:46:29;100192.16;;;13.27;100.00
23733;BME280;12047;53.450;-2.286;2022-11-20T03:51:33;100199.91;;;13.78;100.00
23733;BME280;12047;53.450;-2.286;2022-11-20T03:56:36;100190.97;;;14.10;100.00
23733;BME280;12047;53.450;-2.286;2022-11-20T04:01:37;100178.03;;;13.03;100.00
23733;BME280;12047;53.450;-2.286;2022-11-20T04:06:38;100175.69;;;13.40;100.00
23733;BME280;12047;53.450;-2.286;2022-11-20T04:11:39;100180.31;;;14.10;100.00
23733;BME280;12047;53.450;-2.286;2022-11-20T04:16:40;100176.88;;;14.32;100.00
23733;BME280;12047;53.450;-2.286;2022-11-20T04:21:43;100185.16;;;14.06;100.00
23733;BME280;12047;53.450;-2.286;2022-11-20T04:26:43;100178.41;;;13.79;100.00
23733;BME280;12047;53.450;-2.286;2022-11-20T04:31:44;100171.13;;;13.65;100.00
23733;BME280;12047;53.450;-2.286;2022-11-20T04:36:45;100170.63;;;13.70;100.00
23733;BME280;12047;53.450;-2.286;2022-11-20T04:41:45;100171.75;;;14.22;100.00
23733;BME280;12047;53.450;-2.286;2022-11-20T04:46:46;100179.66;;;14.08;100.00
23733;BME280;12047;53.450;-2.286;2022-11-20T04:51:46;100181.09;;;13.71;100.00
23733;BME280;12047;53.450;-2.286;2022-11-20T04:56:48;100175.81;;;13.55;100.00
23733;BME280;12047;53.450;-2.286;2022-11-20T05:01:48;100164.38;;;13.93;100.00
23733;BME280;12047;53.450;-2.286;2022-11-20T05:06:50;100171.88;;;13.90;100.00
23733;BME280;12047;53.450;-2.286;2022-11-20T05:11:50;100165.00;;;14.66;100.00
23733;BME280;12047;53.450;-2.286;2022-11-20T05:16:51;100176.75;;;14.17;100.00
23733;BME280;12047;53.450;-2.286;2022-11-20T05:21:51;100182.38;;;14.30;100.00
23733;BME280;12047;53.450;-2.286;2022-11-20T05:26:52;100175.75;;;14.18;100.00
23733;BME280;12047;53.450;-2.286;2022-11-20T05:31:53;100179.59;;;14.55;100.00
23733;BME280;12047;53.450;-2.286;2022-11-20T05:36:53;100188.41;;;13.85;100.00
23733;BME280;12047;53.450;-2.286;2022-11-20T05:41:54;100176.41;;;13.81;100.00
23733;BME280;12047;53.450;-2.286;2022-11-20T05:47:13;100174.88;;;14.26;100.00
23733;BME280;12047;53.450;-2.286;2022-11-20T05:52:27;100171.09;;;14.20;100.00
23733;BME280;12047;53.450;-2.286;2022-11-20T05:57:28;100162.94;;;14.53;100.00
23733;BME280;12047;53.450;-2.286;2022-11-20T06:02:28;100156.22;;;15.03;100.00
23733;BME280;12047;53.450;-2.286;2022-11-20T06:07:29;100162.22;;;15.19;100.00
23733;BME280;12047;53.450;-2.286;2022-11-20T06:12:35;100164.16;;;14.88;100.00
23733;BME280;12047;53.450;-2.286;2022-11-20T06:17:36;100163.69;;;14.61;100.00
23733;BME280;12047;53.450;-2.286;2022-11-20T06:22:37;100162.63;;;14.48;100.00
23733;BME280;12047;53.450;-2.286;2022-11-20T06:27:37;100174.31;;;14.39;100.00
23733;BME280;12047;53.450;-2.286;2022-11-20T06:32:38;100171.31;;;14.42;100.00
23733;BME280;12047;53.450;-2.286;2022-11-20T06:37:38;100165.88;;;14.27;100.00
23733;BME280;12047;53.450;-2.286;2022-11-20T06:42:42;100169.75;;;14.55;100.00
23733;BME280;12047;53.450;-2.286;2022-11-20T06:47:43;100163.81;;;14.45;100.00
23733;BME280;12047;53.450;-2.286;2022-11-20T06:52:43;100161.69;;;14.63;100.00
23733;BME280;12047;53.450;-2.286;2022-11-20T06:57:44;100163.94;;;14.13;100.00
23733;BME280;12047;53.450;-2.286;2022-11-20T07:02:44;100171.97;;;14.44;100.00
23733;BME280;12047;53.450;-2.286;2022-11-20T07:07:45;100171.31;;;14.42;100.00
23733;BME280;12047;53.450;-2.286;2022-11-20T07:12:49;100194.69;;;14.32;100.00
23733;BME280;12047;53.450;-2.286;2022-11-20T07:17:51;100191.47;;;14.36;100.00
23733;BME280;12047;53.450;-2.286;2022-11-20T07:22:56;100184.69;;;13.94;100.00
23733;BME280;12047;53.450;-2.286;2022-11-20T07:28:00;100183.75;;;14.18;100.00
23733;BME280;12047;53.450;-2.286;2022-11-20T07:33:00;100195.31;;;14.42;100.00
23733;BME280;12047;53.450;-2.286;2022-11-20T07:38:02;100197.59;;;14.53;100.00
23733;BME280;12047;53.450;-2.286;2022-11-20T07:43:03;100197.59;;;14.98;100.00
23733;BME280;12047;53.450;-2.286;2022-11-20T07:48:04;100201.47;;;15.34;100.00
23733;BME280;12047;53.450;-2.286;2022-11-20T07:53:05;100203.09;;;15.20;100.00
23733;BME280;12047;53.450;-2.286;2022-11-20T07:58:05;100215.63;;;14.74;100.00
23733;BME280;12047;53.450;-2.286;2022-11-20T08:03:09;100224.28;;;14.37;100.00
23733;BME280;12047;53.450;-2.286;2022-11-20T08:08:10;100215.53;;;14.20;100.00
23733;BME280;12047;53.450;-2.286;2022-11-20T08:13:10;100217.19;;;13.82;100.00
23733;BME280;12047;53.450;-2.286;2022-11-20T08:18:29;100217.78;;;14.39;100.00
23733;BME280;12047;53.450;-2.286;2022-11-20T08:23:30;100212.53;;;14.85;100.00
23733;BME280;12047;53.450;-2.286;2022-11-20T08:28:30;100229.66;;;14.68;100.00
23733;BME280;12047;53.450;-2.286;2022-11-20T08:33:31;100222.44;;;14.45;100.00
23733;BME280;12047;53.450;-2.286;2022-11-20T08:38:33;100227.59;;;14.47;100.00
23733;BME280;12047;53.450;-2.286;2022-11-20T08:43:39;100234.50;;;14.64;100.00
23733;BME280;12047;53.450;-2.286;2022-11-20T08:49:01;100233.84;;;14.62;100.00
23733;BME280;12047;53.450;-2.286;2022-11-20T08:54:02;100241.47;;;14.73;100.00
23733;BME280;12047;53.450;-2.286;2022-11-20T08:59:19;100251.09;;;14.04;100.00
23733;BME280;12047;53.450;-2.286;2022-11-20T09:04:20;100241.94;;;14.46;100.00
23733;BME280;12047;53.450;-2.286;2022-11-20T09:09:21;100255.09;;;14.78;100.00
23733;BME280;12047;53.450;-2.286;2022-11-20T09:14:22;100241.47;;;14.96;100.00
23733;BME280;12047;53.450;-2.286;2022-11-20T09:19:29;100248.28;;;14.45;100.00
23733;BME280;12047;53.450;-2.286;2022-11-20T09:24:29;100246.50;;;14.60;100.00
23733;BME280;12047;53.450;-2.286;2022-11-20T09:29:30;100245.59;;;14.76;100.00
23733;BME280;12047;53.450;-2.286;2022-11-20T09:34:30;100235.00;;;14.90;100.00
23733;BME280;12047;53.450;-2.286;2022-11-20T09:39:32;100235.41;;;15.62;100.00
23733;BME280;12047;53.450;-2.286;2022-11-20T09:44:47;100248.94;;;15.61;100.00
23733;BME280;12047;53.450;-2.286;2022-11-20T09:55:10;100248.31;;;15.36;100.00
23733;BME280;12047;53.450;-2.286;2022-11-20T10:00:15;100260.53;;;15.53;100.00
23733;BME280;12047;53.450;-2.286;2022-11-20T10:05:40;100271.09;;;15.47;100.00
23733;BME280;12047;53.450;-2.286;2022-11-20T10:11:18;100267.75;;;15.68;100.00
23733;BME280;12047;53.450;-2.286;2022-11-20T10:17:22;100272.50;;;15.35;100.00
23733;BME280;12047;53.450;-2.286;2022-11-20T10:35:01;100295.44;;;16.33;100.00
23733;BME280;12047;53.450;-2.286;2022-11-20T10:46:42;100263.81;;;15.93;100.00
23733;BME280;12047;53.450;-2.286;2022-11-20T10:52:11;100249.03;;;16.71;100.00
23733;BME280;12047;53.450;-2.286;2022-11-20T10:58:12;100253.28;;;16.50;100.00
23733;BME280;12047;53.450;-2.286;2022-11-20T11:14:53;100228.09;;;16.74;100.00
23733;BME280;12047;53.450;-2.286;2022-11-20T11:20:19;100225.84;;;16.63;100.00
23733;BME280;12047;53.450;-2.286;2022-11-20T11:26:00;100221.66;;;16.54;100.00
23733;BME280;12047;53.450;-2.286;2022-11-20T11:31:01;100213.88;;;16.95;100.00
23733;BME280;12047;53.450;-2.286;2022-11-20T11:42:01;100209.78;;;16.42;100.00
23733;BME280;12047;53.450;-2.286;2022-11-20T12:05:47;100182.19;;;17.76;100.00
23733;BME280;12047;53.450;-2.286;2022-11-20T12:35:00;100149.97;;;16.64;100.00
23733;BME280;12047;53.450;-2.286;2022-11-20T12:40:28;100162.66;;;16.41;100.00
23733;BME280;12047;53.450;-2.286;2022-11-20T13:02:00;100187.41;;;16.64;100.00
23733;BME280;12047;53.450;-2.286;2022-11-20T13:07:08;100172.88;;;16.52;100.00
23733;BME280;12047;53.450;-2.286;2022-11-20T13:12:36;100170.69;;;16.77;100.00
23733;BME280;12047;53.450;-2.286;2022-11-20T13:17:57;100178.88;;;16.03;100.00
23733;BME280;12047;53.450;-2.286;2022-11-20T13:23:02;100174.31;;;16.69;100.00
23733;BME280;12047;53.450;-2.286;2022-11-20T13:38:26;100184.25;;;16.39;100.00
23733;BME280;12047;53.450;-2.286;2022-11-20T13:43:47;100184.25;;;16.96;100.00
23733;BME280;12047;53.450;-2.286;2022-11-20T13:48:51;100184.22;;;16.54;100.00
23733;BME280;12047;53.450;-2.286;2022-11-20T14:04:45;100169.16;;;16.67;100.00
23733;BME280;12047;53.450;-2.286;2022-11-20T14:09:55;100170.34;;;16.65;100.00
23733;BME280;12047;53.450;-2.286;2022-11-20T14:14:58;100169.94;;;16.47;100.00
23733;BME280;12047;53.450;-2.286;2022-11-20T14:20:03;100172.50;;;16.55;100.00
23733;BME280;12047;53.450;-2.286;2022-11-20T14:25:18;100165.53;;;16.03;100.00
23733;BME280;12047;53.450;-2.286;2022-11-20T14:42:23;100184.81;;;16.34;100.00
23733;BME280;12047;53.450;-2.286;2022-11-20T14:47:30;100205.03;;;15.63;100.00
23733;BME280;12047;53.450;-2.286;2022-11-20T14:58:58;100250.91;;;14.53;100.00
23733;BME280;12047;53.450;-2.286;2022-11-20T15:27:52;100296.16;;;14.69;100.00
23733;BME280;12047;53.450;-2.286;2022-11-20T15:39:28;100283.78;;;14.76;100.00
23733;BME280;12047;53.450;-2.286;2022-11-20T15:56:23;100279.81;;;15.18;100.00
23733;BME280;12047;53.450;-2.286;2022-11-20T16:01:31;100280.94;;;15.69;100.00
23733;BME280;12047;53.450;-2.286;2022-11-20T16:13:08;100290.78;;;14.77;100.00
23733;BME280;12047;53.450;-2.286;2022-11-20T16:42:24;100279.91;;;13.92;100.00
23733;BME280;12047;53.450;-2.286;2022-11-20T16:47:49;100277.06;;;14.02;100.00
23733;BME280;12047;53.450;-2.286;2022-11-20T16:52:52;100279.38;;;14.05;100.00
23733;BME280;12047;53.450;-2.286;2022-11-20T16:58:02;100286.06;;;13.93;100.00
23733;BME280;12047;53.450;-2.286;2022-11-20T17:03:04;100273.13;;;13.17;100.00
23733;BME280;12047;53.450;-2.286;2022-11-20T17:08:05;100292.81;;;14.28;100.00
23733;BME280;12047;53.450;-2.286;2022-11-20T17:19:14;100305.91;;;13.82;100.00
23733;BME280;12047;53.450;-2.286;2022-11-20T17:24:14;100282.88;;;14.06;100.00
23733;BME280;12047;53.450;-2.286;2022-11-20T17:29:17;100293.41;;;13.75;100.00
23733;BME280;12047;53.450;-2.286;2022-11-20T17:34:36;100300.31;;;14.24;100.00
23733;BME280;12047;53.450;-2.286;2022-11-20T17:39:48;100304.16;;;14.14;100.00
23733;BME280;12047;53.450;-2.286;2022-11-20T17:44:49;100312.81;;;14.63;100.00
23733;BME280;12047;53.450;-2.286;2022-11-20T17:49:49;100310.47;;;14.21;100.00
23733;BME280;12047;53.450;-2.286;2022-11-20T17:54:50;100325.75;;;14.82;100.00
23733;BME280;12047;53.450;-2.286;2022-11-20T17:59:55;100333.22;;;14.87;100.00
23733;BME280;12047;53.450;-2.286;2022-11-20T18:05:08;100319.88;;;14.56;100.00
23733;BME280;12047;53.450;-2.286;2022-11-20T18:15:51;100336.47;;;15.05;100.00
23733;BME280;12047;53.450;-2.286;2022-11-20T18:20:52;100353.13;;;14.76;100.00
23733;BME280;12047;53.450;-2.286;2022-11-20T18:26:01;100361.47;;;14.65;100.00
23733;BME280;12047;53.450;-2.286;2022-11-20T18:42:46;100383.97;;;13.83;100.00
23733;BME280;12047;53.450;-2.286;2022-11-20T18:48:40;100362.97;;;13.31;100.00
23733;BME280;12047;53.450;-2.286;2022-11-20T18:54:01;100352.91;;;14.30;100.00
23733;BME280;12047;53.450;-2.286;2022-11-20T18:59:04;100367.16;;;13.74;100.00
23733;BME280;12047;53.450;-2.286;2022-11-20T19:04:10;100382.09;;;13.51;100.00
23733;BME280;12047;53.450;-2.286;2022-11-20T19:09:12;100383.44;;;13.87;100.00
23733;BME280;12047;53.450;-2.286;2022-11-20T19:14:13;100383.06;;;13.25;100.00
23733;BME280;12047;53.450;-2.286;2022-11-20T19:19:14;100371.97;;;13.71;100.00
23733;BME280;12047;53.450;-2.286;2022-11-20T19:24:15;100362.97;;;13.88;100.00
23733;BME280;12047;53.450;-2.286;2022-11-20T19:29:16;100378.63;;;13.58;100.00
23733;BME280;12047;53.450;-2.286;2022-11-20T19:34:16;100381.47;;;13.73;100.00
23733;BME280;12047;53.450;-2.286;2022-11-20T19:39:17;100384.75;;;14.24;100.00
23733;BME280;12047;53.450;-2.286;2022-11-20T19:44:18;100384.09;;;13.49;100.00
23733;BME280;12047;53.450;-2.286;2022-11-20T19:49:18;100382.28;;;13.74;100.00
23733;BME280;12047;53.450;-2.286;2022-11-20T19:54:19;100404.53;;;13.32;100.00
23733;BME280;12047;53.450;-2.286;2022-11-20T19:59:20;100395.13;;;13.04;100.00
23733;BME280;12047;53.450;-2.286;2022-11-20T20:04:21;100405.41;;;13.49;100.00
23733;BME280;12047;53.450;-2.286;2022-11-20T20:09:21;100389.91;;;14.25;100.00
23733;BME280;12047;53.450;-2.286;2022-11-20T20:14:22;100401.44;;;16.12;100.00
23733;BME280;12047;53.450;-2.286;2022-11-20T20:19:23;100388.91;;;14.18;100.00
23733;BME280;12047;53.450;-2.286;2022-11-20T20:24:24;100396.25;;;14.00;100.00
23733;BME280;12047;53.450;-2.286;2022-11-20T20:29:24;100393.75;;;13.90;100.00
23733;BME280;12047;53.450;-2.286;2022-11-20T20:34:25;100411.75;;;13.56;100.00
23733;BME280;12047;53.450;-2.286;2022-11-20T20:39:28;100406.56;;;13.46;100.00
23733;BME280;12047;53.450;-2.286;2022-11-20T20:44:29;100400.94;;;13.82;100.00
23733;BME280;12047;53.450;-2.286;2022-11-20T20:49:49;100402.78;;;13.81;100.00
23733;BME280;12047;53.450;-2.286;2022-11-20T20:54:49;100388.44;;;13.99;100.00
23733;BME280;12047;53.450;-2.286;2022-11-20T20:59:50;100383.09;;;13.90;100.00
23733;BME280;12047;53.450;-2.286;2022-11-20T21:04:54;100384.28;;;13.88;100.00
23733;BME280;12047;53.450;-2.286;2022-11-20T21:09:55;100382.56;;;13.22;100.00
23733;BME280;12047;53.450;-2.286;2022-11-20T21:15:00;100372.13;;;15.35;100.00
23733;BME280;12047;53.450;-2.286;2022-11-20T21:20:08;100352.81;;;13.91;100.00
23733;BME280;12047;53.450;-2.286;2022-11-20T21:25:29;100370.81;;;13.57;100.00
23733;BME280;12047;53.450;-2.286;2022-11-20T21:30:30;100364.63;;;13.65;100.00
23733;BME280;12047;53.450;-2.286;2022-11-20T21:35:32;100354.16;;;13.63;100.00
23733;BME280;12047;53.450;-2.286;2022-11-20T21:40:36;100342.09;;;14.24;100.00
23733;BME280;12047;53.450;-2.286;2022-11-20T21:45:38;100334.28;;;14.30;100.00
23733;BME280;12047;53.450;-2.286;2022-11-20T21:50:39;100333.09;;;14.41;100.00
23733;BME280;12047;53.450;-2.286;2022-11-20T21:55:40;100356.59;;;14.29;100.00
23733;BME280;12047;53.450;-2.286;2022-11-20T22:24:50;100314.56;;;13.36;100.00
23733;BME280;12047;53.450;-2.286;2022-11-20T22:30:18;100315.88;;;12.65;100.00
23733;BME280;12047;53.450;-2.286;2022-11-20T22:52:32;100301.66;;;12.32;100.00
23733;BME280;12047;53.450;-2.286;2022-11-20T22:57:40;100312.34;;;13.07;100.00
23733;BME280;12047;53.450;-2.286;2022-11-20T23:02:44;100303.44;;;12.74;100.00
23733;BME280;12047;53.450;-2.286;2022-11-20T23:07:45;100289.50;;;12.88;100.00
23733;BME280;12047;53.450;-2.286;2022-11-20T23:12:56;100291.97;;;12.73;100.00
23733;BME280;12047;53.450;-2.286;2022-11-20T23:17:57;100294.41;;;13.09;100.00
23733;BME280;12047;53.450;-2.286;2022-11-20T23:23:07;100285.59;;;13.16;100.00
23733;BME280;12047;53.450;-2.286;2022-11-20T23:28:22;100274.72;;;12.27;100.00
23733;BME280;12047;53.450;-2.286;2022-11-20T23:33:48;100277.06;;;12.97;100.00
23733;BME280;12047;53.450;-2.286;2022-11-20T23:39:07;100263.69;;;12.14;100.00
23733;BME280;12047;53.450;-2.286;2022-11-20T23:44:11;100279.16;;;11.84;100.00
23733;BME280;12047;53.450;-2.286;2022-11-20T23:49:19;100268.53;;;11.23;100.00
23733;BME280;12047;53.450;-2.286;2022-11-20T23:54:19;100265.16;;;12.08;100.00
23733;BME280;12047;53.450;-2.286;2022-11-20T23:59:20;100258.53;;;11.17;100.00
